sensor_id;sensor_type;location;lat;lon;timestamp;temperature;humidity
5901;DHT22;2976;49.764;9.796;2023-04-03T00:00:09;-0.20;99.90
5901;DHT22;2976;49.764;9.796;2023-04-03T00:02:35;-0.20;99.90
5901;DHT22;2976;49.764;9.796;2023-04-03T00:05:01;-0.30;99.90
5901;DHT22;2976;49.764;9.796;2023-04-03T00:07:26;-0.30;99.90
5901;DHT22;2976;49.764;9.796;2023-04-03T00:09:52;-0.40;99.90
5901;DHT22;2976;49.764;9.796;2023-04-03T00:12:17;-0.50;99.90
5901;DHT22;2976;49.764;9.796;2023-04-03T00:14:43;-0.50;99.90
5901;DHT22;2976;49.764;9.796;2023-04-03T00:17:08;-0.50;99.90
5901;DHT22;2976;49.764;9.796;2023-04-03T00:19:34;-0.60;99.90
5901;DHT22;2976;49.764;9.796;2023-04-03T00:22:00;-0.60;99.90
5901;DHT22;2976;49.764;9.796;2023-04-03T00:24:25;-0.70;99.90
5901;DHT22;2976;49.764;9.796;2023-04-03T00:26:51;-0.70;99.90
5901;DHT22;2976;49.764;9.796;2023-04-03T00:29:16;-0.60;99.90
5901;DHT22;2976;49.764;9.796;2023-04-03T00:31:42;-0.60;99.90
5901;DHT22;2976;49.764;9.796;2023-04-03T00:34:07;-0.60;99.90
5901;DHT22;2976;49.764;9.796;2023-04-03T00:36:33;-0.60;99.90
5901;DHT22;2976;49.764;9.796;2023-04-03T00:38:58;-0.60;99.90
5901;DHT22;2976;49.764;9.796;2023-04-03T00:41:24;-0.60;99.90
5901;DHT22;2976;49.764;9.796;2023-04-03T00:43:50;-0.60;99.90
5901;DHT22;2976;49.764;9.796;2023-04-03T00:46:16;-0.60;99.90
5901;DHT22;2976;49.764;9.796;2023-04-03T00:48:44;-0.60;99.90
5901;DHT22;2976;49.764;9.796;2023-04-03T00:51:14;-0.60;99.90
5901;DHT22;2976;49.764;9.796;2023-04-03T00:54:02;-0.60;99.90
5901;DHT22;2976;49.764;9.796;2023-04-03T00:56:30;-0.60;99.90
5901;DHT22;2976;49.764;9.796;2023-04-03T00:59:04;-0.60;99.90
5901;DHT22;2976;49.764;9.796;2023-04-03T01:01:31;-0.60;99.90
5901;DHT22;2976;49.764;9.796;2023-04-03T01:03:59;-0.60;99.90
5901;DHT22;2976;49.764;9.796;2023-04-03T01:06:28;-0.50;99.90
5901;DHT22;2976;49.764;9.796;2023-04-03T01:08:56;-0.50;99.90
5901;DHT22;2976;49.764;9.796;2023-04-03T01:11:22;-0.50;99.90
5901;DHT22;2976;49.764;9.796;2023-04-03T01:13:48;-0.50;99.90
5901;DHT22;2976;49.764;9.796;2023-04-03T01:16:14;-0.50;99.90
5901;DHT22;2976;49.764;9.796;2023-04-03T01:18:40;-0.50;99.90
5901;DHT22;2976;49.764;9.796;2023-04-03T01:24:17;-0.40;99.90
5901;DHT22;2976;49.764;9.796;2023-04-03T01:26:46;-0.40;99.90
5901;DHT22;2976;49.764;9.796;2023-04-03T01:29:12;-0.30;99.90
5901;DHT22;2976;49.764;9.796;2023-04-03T01:34:05;-0.30;99.90
5901;DHT22;2976;49.764;9.796;2023-04-03T01:36:32;-0.30;99.90
5901;DHT22;2976;49.764;9.796;2023-04-03T01:38:59;-0.30;99.90
5901;DHT22;2976;49.764;9.796;2023-04-03T01:41:25;-0.30;99.90
5901;DHT22;2976;49.764;9.796;2023-04-03T01:43:51;-0.40;99.90
5901;DHT22;2976;49.764;9.796;2023-04-03T01:46:18;-0.40;99.90
5901;DHT22;2976;49.764;9.796;2023-04-03T01:48:44;-0.30;99.90
5901;DHT22;2976;49.764;9.796;2023-04-03T01:51:10;-0.30;99.90
5901;DHT22;2976;49.764;9.796;2023-04-03T01:53:36;-0.20;99.90
5901;DHT22;2976;49.764;9.796;2023-04-03T01:56:01;-0.20;99.90
5901;DHT22;2976;49.764;9.796;2023-04-03T01:58:27;-0.20;99.90
5901;DHT22;2976;49.764;9.796;2023-04-03T02:00:52;-0.10;99.90
5901;DHT22;2976;49.764;9.796;2023-04-03T02:03:18;0.00;99.90
5901;DHT22;2976;49.764;9.796;2023-04-03T02:05:44;0.10;99.90
5901;DHT22;2976;49.764;9.796;2023-04-03T02:08:10;0.20;99.90
5901;DHT22;2976;49.764;9.796;2023-04-03T02:10:36;0.20;99.90
5901;DHT22;2976;49.764;9.796;2023-04-03T02:13:02;0.30;99.90
5901;DHT22;2976;49.764;9.796;2023-04-03T02:15:27;0.30;99.90
5901;DHT22;2976;49.764;9.796;2023-04-03T02:17:53;0.30;99.90
5901;DHT22;2976;49.764;9.796;2023-04-03T02:20:19;0.30;99.90
5901;DHT22;2976;49.764;9.796;2023-04-03T02:22:44;0.30;99.90
5901;DHT22;2976;49.764;9.796;2023-04-03T02:25:10;0.30;99.90
5901;DHT22;2976;49.764;9.796;2023-04-03T02:27:36;0.40;99.90
5901;DHT22;2976;49.764;9.796;2023-04-03T02:30:03;0.40;99.90
5901;DHT22;2976;49.764;9.796;2023-04-03T02:32:29;0.50;99.90
5901;DHT22;2976;49.764;9.796;2023-04-03T02:34:54;0.60;99.90
5901;DHT22;2976;49.764;9.796;2023-04-03T02:37:20;0.60;99.90
5901;DHT22;2976;49.764;9.796;2023-04-03T02:39:46;0.70;99.90
5901;DHT22;2976;49.764;9.796;2023-04-03T02:42:12;0.80;99.90
5901;DHT22;2976;49.764;9.796;2023-04-03T02:44:37;0.90;99.90
5901;DHT22;2976;49.764;9.796;2023-04-03T02:47:04;0.90;99.90
5901;DHT22;2976;49.764;9.796;2023-04-03T02:49:29;0.90;99.90
5901;DHT22;2976;49.764;9.796;2023-04-03T02:51:55;0.90;99.90
5901;DHT22;2976;49.764;9.796;2023-04-03T02:54:20;1.00;99.90
5901;DHT22;2976;49.764;9.796;2023-04-03T02:56:48;1.00;99.90
5901;DHT22;2976;49.764;9.796;2023-04-03T02:59:14;1.00;99.90
5901;DHT22;2976;49.764;9.796;2023-04-03T03:01:39;1.00;99.90
5901;DHT22;2976;49.764;9.796;2023-04-03T03:04:05;1.00;99.90
5901;DHT22;2976;49.764;9.796;2023-04-03T03:06:30;1.00;99.90
5901;DHT22;2976;49.764;9.796;2023-04-03T03:08:56;1.10;99.90
5901;DHT22;2976;49.764;9.796;2023-04-03T03:11:22;1.20;99.90
5901;DHT22;2976;49.764;9.796;2023-04-03T03:13:47;1.30;99.90
5901;DHT22;2976;49.764;9.796;2023-04-03T03:16:13;1.30;99.90
5901;DHT22;2976;49.764;9.796;2023-04-03T03:18:38;1.40;99.90
5901;DHT22;2976;49.764;9.796;2023-04-03T03:21:04;1.40;99.90
5901;DHT22;2976;49.764;9.796;2023-04-03T03:23:31;1.50;99.90
5901;DHT22;2976;49.764;9.796;2023-04-03T03:26:03;1.50;99.90
5901;DHT22;2976;49.764;9.796;2023-04-03T03:28:29;1.60;99.90
5901;DHT22;2976;49.764;9.796;2023-04-03T03:30:54;1.70;99.90
5901;DHT22;2976;49.764;9.796;2023-04-03T03:33:20;1.70;99.90
5901;DHT22;2976;49.764;9.796;2023-04-03T03:35:46;1.70;99.90
5901;DHT22;2976;49.764;9.796;2023-04-03T03:38:11;1.70;99.90
5901;DHT22;2976;49.764;9.796;2023-04-03T03:40:37;1.80;99.90
5901;DHT22;2976;49.764;9.796;2023-04-03T03:43:02;1.90;99.90
5901;DHT22;2976;49.764;9.796;2023-04-03T03:45:28;1.90;99.90
5901;DHT22;2976;49.764;9.796;2023-04-03T03:47:54;1.90;99.90
5901;DHT22;2976;49.764;9.796;2023-04-03T03:50:20;1.90;99.90
5901;DHT22;2976;49.764;9.796;2023-04-03T03:52:46;1.90;99.90
5901;DHT22;2976;49.764;9.796;2023-04-03T03:55:11;1.90;99.90
5901;DHT22;2976;49.764;9.796;2023-04-03T03:57:37;1.90;99.90
5901;DHT22;2976;49.764;9.796;2023-04-03T04:00:03;1.90;99.90
5901;DHT22;2976;49.764;9.796;2023-04-03T04:02:29;1.90;99.90
5901;DHT22;2976;49.764;9.796;2023-04-03T04:04:55;1.90;99.90
5901;DHT22;2976;49.764;9.796;2023-04-03T04:07:20;1.90;99.90
5901;DHT22;2976;49.764;9.796;2023-04-03T04:09:46;1.90;99.90
5901;DHT22;2976;49.764;9.796;2023-04-03T04:12:11;1.90;99.90
5901;DHT22;2976;49.764;9.796;2023-04-03T04:14:37;1.90;99.90
5901;DHT22;2976;49.764;9.796;2023-04-03T04:17:02;1.90;99.90
5901;DHT22;2976;49.764;9.796;2023-04-03T04:19:28;1.90;99.90
5901;DHT22;2976;49.764;9.796;2023-04-03T04:21:54;1.90;99.90
5901;DHT22;2976;49.764;9.796;2023-04-03T04:24:19;1.90;99.90
5901;DHT22;2976;49.764;9.796;2023-04-03T04:26:45;1.90;99.90
5901;DHT22;2976;49.764;9.796;2023-04-03T04:29:11;1.80;99.90
5901;DHT22;2976;49.764;9.796;2023-04-03T04:31:36;1.80;99.90
5901;DHT22;2976;49.764;9.796;2023-04-03T04:34:02;1.80;99.90
5901;DHT22;2976;49.764;9.796;2023-04-03T04:36:27;1.80;99.90
5901;DHT22;2976;49.764;9.796;2023-04-03T04:38:53;1.70;99.90
5901;DHT22;2976;49.764;9.796;2023-04-03T04:41:22;1.60;99.90
5901;DHT22;2976;49.764;9.796;2023-04-03T04:43:49;1.60;99.90
5901;DHT22;2976;49.764;9.796;2023-04-03T04:46:14;1.50;99.90
5901;DHT22;2976;49.764;9.796;2023-04-03T04:48:40;1.50;99.90
5901;DHT22;2976;49.764;9.796;2023-04-03T04:51:06;1.40;99.90
5901;DHT22;2976;49.764;9.796;2023-04-03T04:53:31;1.40;99.90
5901;DHT22;2976;49.764;9.796;2023-04-03T04:55:57;1.40;99.90
5901;DHT22;2976;49.764;9.796;2023-04-03T04:58:23;1.30;99.90
5901;DHT22;2976;49.764;9.796;2023-04-03T05:00:48;1.20;99.90
5901;DHT22;2976;49.764;9.796;2023-04-03T05:03:14;1.30;99.90
5901;DHT22;2976;49.764;9.796;2023-04-03T05:05:39;1.20;99.90
5901;DHT22;2976;49.764;9.796;2023-04-03T05:08:05;1.20;99.90
5901;DHT22;2976;49.764;9.796;2023-04-03T05:10:31;1.20;99.90
5901;DHT22;2976;49.764;9.796;2023-04-03T05:12:57;1.10;99.90
5901;DHT22;2976;49.764;9.796;2023-04-03T05:15:23;1.10;99.90
5901;DHT22;2976;49.764;9.796;2023-04-03T05:17:48;1.20;99.90
5901;DHT22;2976;49.764;9.796;2023-04-03T05:20:14;1.10;99.90
5901;DHT22;2976;49.764;9.796;2023-04-03T05:22:40;1.20;99.90
5901;DHT22;2976;49.764;9.796;2023-04-03T05:25:06;1.20;99.90
5901;DHT22;2976;49.764;9.796;2023-04-03T05:27:32;1.20;99.90
5901;DHT22;2976;49.764;9.796;2023-04-03T05:29:57;1.20;99.90
5901;DHT22;2976;49.764;9.796;2023-04-03T05:32:24;1.20;99.90
5901;DHT22;2976;49.764;9.796;2023-04-03T05:34:51;1.10;99.90
5901;DHT22;2976;49.764;9.796;2023-04-03T05:37:17;1.20;99.90
5901;DHT22;2976;49.764;9.796;2023-04-03T05:39:42;1.10;99.90
5901;DHT22;2976;49.764;9.796;2023-04-03T05:42:08;1.20;99.90
5901;DHT22;2976;49.764;9.796;2023-04-03T05:44:33;1.30;99.90
5901;DHT22;2976;49.764;9.796;2023-04-03T05:46:59;1.30;99.90
5901;DHT22;2976;49.764;9.796;2023-04-03T05:49:25;1.30;99.90
5901;DHT22;2976;49.764;9.796;2023-04-03T05:51:50;1.30;99.90
5901;DHT22;2976;49.764;9.796;2023-04-03T05:54:30;1.30;99.90
5901;DHT22;2976;49.764;9.796;2023-04-03T05:56:55;1.30;99.90
5901;DHT22;2976;49.764;9.796;2023-04-03T05:59:21;1.30;99.90
5901;DHT22;2976;49.764;9.796;2023-04-03T06:01:47;1.30;99.90
5901;DHT22;2976;49.764;9.796;2023-04-03T06:04:13;1.30;99.90
5901;DHT22;2976;49.764;9.796;2023-04-03T06:06:53;1.20;99.90
5901;DHT22;2976;49.764;9.796;2023-04-03T06:09:21;1.50;99.90
5901;DHT22;2976;49.764;9.796;2023-04-03T06:11:47;1.90;99.90
5901;DHT22;2976;49.764;9.796;2023-04-03T06:14:13;2.30;99.90
5901;DHT22;2976;49.764;9.796;2023-04-03T06:16:38;2.80;99.90
5901;DHT22;2976;49.764;9.796;2023-04-03T06:19:06;3.00;99.90
5901;DHT22;2976;49.764;9.796;2023-04-03T06:21:32;3.40;90.00
5901;DHT22;2976;49.764;9.796;2023-04-03T06:23:57;3.50;82.80
5901;DHT22;2976;49.764;9.796;2023-04-03T06:26:23;3.70;68.70
5901;DHT22;2976;49.764;9.796;2023-04-03T06:28:49;4.00;58.50
5901;DHT22;2976;49.764;9.796;2023-04-03T06:31:14;4.00;43.10
5901;DHT22;2976;49.764;9.796;2023-04-03T06:33:40;3.80;61.10
5901;DHT22;2976;49.764;9.796;2023-04-03T06:36:06;3.70;67.50
5901;DHT22;2976;49.764;9.796;2023-04-03T06:38:35;3.70;65.70
5901;DHT22;2976;49.764;9.796;2023-04-03T06:41:00;3.80;66.20
5901;DHT22;2976;49.764;9.796;2023-04-03T06:43:26;3.80;61.50
5901;DHT22;2976;49.764;9.796;2023-04-03T06:45:51;3.90;43.20
5901;DHT22;2976;49.764;9.796;2023-04-03T06:48:17;3.80;43.90
5901;DHT22;2976;49.764;9.796;2023-04-03T06:50:43;3.70;47.40
5901;DHT22;2976;49.764;9.796;2023-04-03T06:53:09;3.60;55.50
5901;DHT22;2976;49.764;9.796;2023-04-03T06:55:34;3.90;52.90
5901;DHT22;2976;49.764;9.796;2023-04-03T06:58:01;4.00;38.70
5901;DHT22;2976;49.764;9.796;2023-04-03T07:00:27;4.20;33.40
5901;DHT22;2976;49.764;9.796;2023-04-03T07:02:53;4.30;23.70
5901;DHT22;2976;49.764;9.796;2023-04-03T07:05:19;3.90;27.90
5901;DHT22;2976;49.764;9.796;2023-04-03T07:07:44;4.10;29.50
5901;DHT22;2976;49.764;9.796;2023-04-03T07:10:10;4.00;23.90
5901;DHT22;2976;49.764;9.796;2023-04-03T07:12:36;4.10;27.50
5901;DHT22;2976;49.764;9.796;2023-04-03T07:15:04;4.00;22.40
5901;DHT22;2976;49.764;9.796;2023-04-03T07:17:29;3.90;29.00
5901;DHT22;2976;49.764;9.796;2023-04-03T07:19:55;3.70;30.80
5901;DHT22;2976;49.764;9.796;2023-04-03T07:22:20;3.50;38.00
5901;DHT22;2976;49.764;9.796;2023-04-03T07:24:46;3.50;45.50
5901;DHT22;2976;49.764;9.796;2023-04-03T07:27:11;3.40;43.80
5901;DHT22;2976;49.764;9.796;2023-04-03T07:29:38;3.50;49.80
5901;DHT22;2976;49.764;9.796;2023-04-03T07:32:04;3.50;41.50
5901;DHT22;2976;49.764;9.796;2023-04-03T07:34:31;3.60;36.00
5901;DHT22;2976;49.764;9.796;2023-04-03T07:36:56;3.60;34.60
5901;DHT22;2976;49.764;9.796;2023-04-03T07:39:23;3.60;46.90
5901;DHT22;2976;49.764;9.796;2023-04-03T07:41:48;3.90;24.90
5901;DHT22;2976;49.764;9.796;2023-04-03T07:44:14;4.00;15.70
5901;DHT22;2976;49.764;9.796;2023-04-03T07:46:39;3.90;16.40
5901;DHT22;2976;49.764;9.796;2023-04-03T07:49:06;4.00;20.40
5901;DHT22;2976;49.764;9.796;2023-04-03T07:51:32;4.10;12.00
5901;DHT22;2976;49.764;9.796;2023-04-03T07:53:57;4.30;8.40
5901;DHT22;2976;49.764;9.796;2023-04-03T07:56:23;4.30;15.90
5901;DHT22;2976;49.764;9.796;2023-04-03T07:58:48;4.10;10.80
5901;DHT22;2976;49.764;9.796;2023-04-03T08:01:14;4.10;7.20
5901;DHT22;2976;49.764;9.796;2023-04-03T08:03:40;4.10;25.20
5901;DHT22;2976;49.764;9.796;2023-04-03T08:06:06;4.30;24.30
5901;DHT22;2976;49.764;9.796;2023-04-03T08:08:33;4.30;6.00
5901;DHT22;2976;49.764;9.796;2023-04-03T08:11:00;4.40;11.50
5901;DHT22;2976;49.764;9.796;2023-04-03T08:13:26;4.40;8.10
5901;DHT22;2976;49.764;9.796;2023-04-03T08:15:52;4.60;1.00
5901;DHT22;2976;49.764;9.796;2023-04-03T08:18:18;4.60;1.00
5901;DHT22;2976;49.764;9.796;2023-04-03T08:20:46;4.70;1.00
5901;DHT22;2976;49.764;9.796;2023-04-03T08:23:12;4.90;1.00
5901;DHT22;2976;49.764;9.796;2023-04-03T08:25:40;5.10;1.00
5901;DHT22;2976;49.764;9.796;2023-04-03T08:28:06;5.10;1.00
5901;DHT22;2976;49.764;9.796;2023-04-03T08:30:32;4.90;1.00
5901;DHT22;2976;49.764;9.796;2023-04-03T08:33:00;5.30;1.00
5901;DHT22;2976;49.764;9.796;2023-04-03T08:35:27;5.30;1.00
5901;DHT22;2976;49.764;9.796;2023-04-03T08:37:52;5.50;1.00
5901;DHT22;2976;49.764;9.796;2023-04-03T08:40:18;5.80;1.00
5901;DHT22;2976;49.764;9.796;2023-04-03T08:45:49;5.60;1.00
5901;DHT22;2976;49.764;9.796;2023-04-03T08:48:29;5.10;99.90
5901;DHT22;2976;49.764;9.796;2023-04-03T08:51:16;5.00;86.30
5901;DHT22;2976;49.764;9.796;2023-04-03T08:53:56;5.00;99.90
5901;DHT22;2976;49.764;9.796;2023-04-03T08:56:22;5.10;17.50
5901;DHT22;2976;49.764;9.796;2023-04-03T08:58:57;4.90;1.00
5901;DHT22;2976;49.764;9.796;2023-04-03T09:01:33;5.20;1.00
5901;DHT22;2976;49.764;9.796;2023-04-03T09:04:01;5.20;1.00
5901;DHT22;2976;49.764;9.796;2023-04-03T09:06:31;5.10;99.90
5901;DHT22;2976;49.764;9.796;2023-04-03T09:15:14;5.20;99.90
5901;DHT22;2976;49.764;9.796;2023-04-03T09:22:42;5.80;99.90
5901;DHT22;2976;49.764;9.796;2023-04-03T09:25:15;5.70;1.00
5901;DHT22;2976;49.764;9.796;2023-04-03T09:27:43;5.60;99.90
5901;DHT22;2976;49.764;9.796;2023-04-03T09:30:22;6.00;1.00
5901;DHT22;2976;49.764;9.796;2023-04-03T09:32:51;6.10;99.90
5901;DHT22;2976;49.764;9.796;2023-04-03T09:37:53;6.50;1.00
5901;DHT22;2976;49.764;9.796;2023-04-03T09:40:33;7.30;1.00
5901;DHT22;2976;49.764;9.796;2023-04-03T09:45:41;7.10;1.00
5901;DHT22;2976;49.764;9.796;2023-04-03T09:48:16;7.40;99.90
5901;DHT22;2976;49.764;9.796;2023-04-03T09:53:41;8.20;1.00
5901;DHT22;2976;49.764;9.796;2023-04-03T09:58:44;7.80;90.90
5901;DHT22;2976;49.764;9.796;2023-04-03T10:01:34;7.40;29.30
5901;DHT22;2976;49.764;9.796;2023-04-03T10:04:18;7.70;1.00
5901;DHT22;2976;49.764;9.796;2023-04-03T10:06:50;7.50;99.90
5901;DHT22;2976;49.764;9.796;2023-04-03T10:09:29;7.60;1.00
5901;DHT22;2976;49.764;9.796;2023-04-03T10:12:02;7.90;99.90
5901;DHT22;2976;49.764;9.796;2023-04-03T10:14:39;8.00;1.00
5901;DHT22;2976;49.764;9.796;2023-04-03T10:25:42;8.20;1.00
5901;DHT22;2976;49.764;9.796;2023-04-03T10:33:56;7.70;1.00
5901;DHT22;2976;49.764;9.796;2023-04-03T10:36:25;7.70;1.00
5901;DHT22;2976;49.764;9.796;2023-04-03T10:46:51;6.60;1.00
5901;DHT22;2976;49.764;9.796;2023-04-03T10:49:25;6.70;1.00
5901;DHT22;2976;49.764;9.796;2023-04-03T10:52:35;6.70;1.00
5901;DHT22;2976;49.764;9.796;2023-04-03T10:55:22;6.70;1.00
5901;DHT22;2976;49.764;9.796;2023-04-03T10:57:50;6.80;1.00
5901;DHT22;2976;49.764;9.796;2023-04-03T11:00:21;7.10;1.00
5901;DHT22;2976;49.764;9.796;2023-04-03T11:02:56;6.90;1.00
5901;DHT22;2976;49.764;9.796;2023-04-03T11:05:37;6.70;1.00
5901;DHT22;2976;49.764;9.796;2023-04-03T11:11:30;7.00;99.90
5901;DHT22;2976;49.764;9.796;2023-04-03T11:14:24;7.30;99.90
5901;DHT22;2976;49.764;9.796;2023-04-03T11:17:21;7.20;1.00
5901;DHT22;2976;49.764;9.796;2023-04-03T11:22:32;6.90;1.00
5901;DHT22;2976;49.764;9.796;2023-04-03T11:27:58;6.80;1.00
5901;DHT22;2976;49.764;9.796;2023-04-03T11:38:45;6.80;1.00
5901;DHT22;2976;49.764;9.796;2023-04-03T11:41:13;7.10;1.00
5901;DHT22;2976;49.764;9.796;2023-04-03T11:44:02;7.00;1.00
5901;DHT22;2976;49.764;9.796;2023-04-03T11:46:51;7.00;99.90
5901;DHT22;2976;49.764;9.796;2023-04-03T11:49:57;7.10;1.00
5901;DHT22;2976;49.764;9.796;2023-04-03T12:06:41;7.40;1.00
5901;DHT22;2976;49.764;9.796;2023-04-03T12:08:53;7.40;1.00
5901;DHT22;2976;49.764;9.796;2023-04-03T12:11:31;7.40;1.00
5901;DHT22;2976;49.764;9.796;2023-04-03T12:29:19;7.90;1.00
5901;DHT22;2976;49.764;9.796;2023-04-03T12:35:16;8.10;99.90
5901;DHT22;2976;49.764;9.796;2023-04-03T12:48:27;6.50;1.00
5901;DHT22;2976;49.764;9.796;2023-04-03T12:50:54;6.40;1.00
5901;DHT22;2976;49.764;9.796;2023-04-03T12:53:33;6.40;50.50
5901;DHT22;2976;49.764;9.796;2023-04-03T12:56:20;6.20;99.90
5901;DHT22;2976;49.764;9.796;2023-04-03T12:58:47;6.50;99.90
5901;DHT22;2976;49.764;9.796;2023-04-03T13:01:22;6.60;99.90
5901;DHT22;2976;49.764;9.796;2023-04-03T13:03:52;6.70;99.90
5901;DHT22;2976;49.764;9.796;2023-04-03T13:06:32;6.80;99.90
5901;DHT22;2976;49.764;9.796;2023-04-03T13:08:59;6.60;99.90
5901;DHT22;2976;49.764;9.796;2023-04-03T13:11:36;6.40;98.80
5901;DHT22;2976;49.764;9.796;2023-04-03T13:14:05;6.70;1.00
5901;DHT22;2976;49.764;9.796;2023-04-03T13:16:39;6.60;99.90
5901;DHT22;2976;49.764;9.796;2023-04-03T13:19:14;6.60;99.90
5901;DHT22;2976;49.764;9.796;2023-04-03T13:21:40;6.40;99.90
5901;DHT22;2976;49.764;9.796;2023-04-03T13:24:06;6.40;99.90
5901;DHT22;2976;49.764;9.796;2023-04-03T13:26:33;6.60;1.00
5901;DHT22;2976;49.764;9.796;2023-04-03T13:29:03;6.80;1.00
5901;DHT22;2976;49.764;9.796;2023-04-03T13:31:31;6.90;1.00
5901;DHT22;2976;49.764;9.796;2023-04-03T13:34:13;7.00;1.00
5901;DHT22;2976;49.764;9.796;2023-04-03T13:36:59;6.80;1.00
5901;DHT22;2976;49.764;9.796;2023-04-03T13:39:28;6.60;1.00
5901;DHT22;2976;49.764;9.796;2023-04-03T13:41:59;6.80;1.00
5901;DHT22;2976;49.764;9.796;2023-04-03T13:44:36;6.40;99.90
5901;DHT22;2976;49.764;9.796;2023-04-03T13:50:29;6.20;99.90
5901;DHT22;2976;49.764;9.796;2023-04-03T13:52:40;6.30;99.90
5901;DHT22;2976;49.764;9.796;2023-04-03T13:55:23;6.40;1.00
5901;DHT22;2976;49.764;9.796;2023-04-03T14:00:36;6.60;99.90
5901;DHT22;2976;49.764;9.796;2023-04-03T14:03:11;6.80;1.00
5901;DHT22;2976;49.764;9.796;2023-04-03T14:05:37;6.90;1.00
5901;DHT22;2976;49.764;9.796;2023-04-03T14:08:03;6.90;1.00
5901;DHT22;2976;49.764;9.796;2023-04-03T14:10:30;6.70;1.00
5901;DHT22;2976;49.764;9.796;2023-04-03T14:12:55;6.80;1.00
5901;DHT22;2976;49.764;9.796;2023-04-03T14:15:27;6.70;1.00
5901;DHT22;2976;49.764;9.796;2023-04-03T14:17:53;6.50;1.00
5901;DHT22;2976;49.764;9.796;2023-04-03T14:20:22;6.60;1.00
5901;DHT22;2976;49.764;9.796;2023-04-03T14:22:49;6.60;99.90
5901;DHT22;2976;49.764;9.796;2023-04-03T14:25:15;6.60;1.00
5901;DHT22;2976;49.764;9.796;2023-04-03T14:27:44;6.50;1.00
5901;DHT22;2976;49.764;9.796;2023-04-03T14:30:18;6.60;99.90
5901;DHT22;2976;49.764;9.796;2023-04-03T14:32:44;6.40;99.90
5901;DHT22;2976;49.764;9.796;2023-04-03T14:35:10;6.50;99.90
5901;DHT22;2976;49.764;9.796;2023-04-03T14:37:36;6.70;1.00
5901;DHT22;2976;49.764;9.796;2023-04-03T14:40:04;6.60;99.90
5901;DHT22;2976;49.764;9.796;2023-04-03T14:42:35;6.60;1.00
5901;DHT22;2976;49.764;9.796;2023-04-03T14:45:02;6.70;1.00
5901;DHT22;2976;49.764;9.796;2023-04-03T14:47:29;6.80;1.00
5901;DHT22;2976;49.764;9.796;2023-04-03T14:49:55;6.70;1.00
5901;DHT22;2976;49.764;9.796;2023-04-03T14:52:27;6.70;99.90
5901;DHT22;2976;49.764;9.796;2023-04-03T14:54:54;6.60;1.00
5901;DHT22;2976;49.764;9.796;2023-04-03T14:57:28;6.40;1.00
5901;DHT22;2976;49.764;9.796;2023-04-03T14:59:55;6.40;1.00
5901;DHT22;2976;49.764;9.796;2023-04-03T15:04:49;6.70;1.00
5901;DHT22;2976;49.764;9.796;2023-04-03T15:07:14;6.80;1.00
5901;DHT22;2976;49.764;9.796;2023-04-03T15:09:40;7.10;99.90
5901;DHT22;2976;49.764;9.796;2023-04-03T15:12:08;7.10;1.00
5901;DHT22;2976;49.764;9.796;2023-04-03T15:14:34;6.90;1.00
5901;DHT22;2976;49.764;9.796;2023-04-03T15:16:59;6.90;1.00
5901;DHT22;2976;49.764;9.796;2023-04-03T15:19:25;6.60;1.00
5901;DHT22;2976;49.764;9.796;2023-04-03T15:21:51;6.30;1.00
5901;DHT22;2976;49.764;9.796;2023-04-03T15:24:16;6.10;1.00
5901;DHT22;2976;49.764;9.796;2023-04-03T15:26:42;6.10;1.00
5901;DHT22;2976;49.764;9.796;2023-04-03T15:29:07;6.30;1.00
5901;DHT22;2976;49.764;9.796;2023-04-03T15:31:33;6.40;1.00
5901;DHT22;2976;49.764;9.796;2023-04-03T15:33:59;6.60;99.90
5901;DHT22;2976;49.764;9.796;2023-04-03T15:36:24;6.80;1.00
5901;DHT22;2976;49.764;9.796;2023-04-03T15:38:50;6.80;99.90
5901;DHT22;2976;49.764;9.796;2023-04-03T15:41:16;6.60;99.90
5901;DHT22;2976;49.764;9.796;2023-04-03T15:43:42;6.40;99.90
5901;DHT22;2976;49.764;9.796;2023-04-03T15:46:07;6.40;99.90
5901;DHT22;2976;49.764;9.796;2023-04-03T15:48:33;6.50;1.00
5901;DHT22;2976;49.764;9.796;2023-04-03T15:50:59;6.60;1.00
5901;DHT22;2976;49.764;9.796;2023-04-03T15:53:25;6.60;99.90
5901;DHT22;2976;49.764;9.796;2023-04-03T15:55:51;6.70;1.00
5901;DHT22;2976;49.764;9.796;2023-04-03T15:58:16;6.60;99.90
5901;DHT22;2976;49.764;9.796;2023-04-03T16:00:42;6.50;99.90
5901;DHT22;2976;49.764;9.796;2023-04-03T16:03:15;6.40;1.00
5901;DHT22;2976;49.764;9.796;2023-04-03T16:05:41;6.60;99.90
5901;DHT22;2976;49.764;9.796;2023-04-03T16:08:07;6.60;99.90
5901;DHT22;2976;49.764;9.796;2023-04-03T16:10:36;6.70;99.90
5901;DHT22;2976;49.764;9.796;2023-04-03T16:13:03;6.80;99.90
5901;DHT22;2976;49.764;9.796;2023-04-03T16:15:29;6.70;99.90
5901;DHT22;2976;49.764;9.796;2023-04-03T16:17:56;6.50;99.90
5901;DHT22;2976;49.764;9.796;2023-04-03T16:20:23;6.40;99.90
5901;DHT22;2976;49.764;9.796;2023-04-03T16:22:49;6.30;99.90
5901;DHT22;2976;49.764;9.796;2023-04-03T16:25:14;5.90;99.90
5901;DHT22;2976;49.764;9.796;2023-04-03T16:27:40;5.80;1.00
5901;DHT22;2976;49.764;9.796;2023-04-03T16:30:07;5.70;1.00
5901;DHT22;2976;49.764;9.796;2023-04-03T16:32:33;5.60;1.00
5901;DHT22;2976;49.764;9.796;2023-04-03T16:35:00;5.60;1.00
5901;DHT22;2976;49.764;9.796;2023-04-03T16:37:25;5.50;1.00
5901;DHT22;2976;49.764;9.796;2023-04-03T16:39:51;5.50;1.00
5901;DHT22;2976;49.764;9.796;2023-04-03T16:42:17;5.50;1.00
5901;DHT22;2976;49.764;9.796;2023-04-03T16:44:43;5.50;1.00
5901;DHT22;2976;49.764;9.796;2023-04-03T16:47:09;5.50;1.00
5901;DHT22;2976;49.764;9.796;2023-04-03T16:49:35;5.60;1.00
5901;DHT22;2976;49.764;9.796;2023-04-03T16:52:01;5.60;1.00
5901;DHT22;2976;49.764;9.796;2023-04-03T16:54:28;5.60;1.00
5901;DHT22;2976;49.764;9.796;2023-04-03T16:56:53;5.50;1.00
5901;DHT22;2976;49.764;9.796;2023-04-03T16:59:19;5.40;1.00
5901;DHT22;2976;49.764;9.796;2023-04-03T17:01:44;5.30;1.00
5901;DHT22;2976;49.764;9.796;2023-04-03T17:04:10;5.30;1.00
5901;DHT22;2976;49.764;9.796;2023-04-03T17:06:35;5.20;1.00
5901;DHT22;2976;49.764;9.796;2023-04-03T17:09:01;5.10;1.00
5901;DHT22;2976;49.764;9.796;2023-04-03T17:11:30;5.00;1.00
5901;DHT22;2976;49.764;9.796;2023-04-03T17:13:56;5.00;1.00
5901;DHT22;2976;49.764;9.796;2023-04-03T17:16:22;5.00;1.00
5901;DHT22;2976;49.764;9.796;2023-04-03T17:18:48;4.90;99.90
5901;DHT22;2976;49.764;9.796;2023-04-03T17:21:15;4.90;99.90
5901;DHT22;2976;49.764;9.796;2023-04-03T17:23:43;4.90;99.90
5901;DHT22;2976;49.764;9.796;2023-04-03T17:26:09;4.90;99.90
5901;DHT22;2976;49.764;9.796;2023-04-03T17:28:35;5.00;97.00
5901;DHT22;2976;49.764;9.796;2023-04-03T17:31:02;4.90;25.00
5901;DHT22;2976;49.764;9.796;2023-04-03T17:33:28;4.90;9.60
5901;DHT22;2976;49.764;9.796;2023-04-03T17:35:59;4.70;84.80
5901;DHT22;2976;49.764;9.796;2023-04-03T17:38:26;4.60;13.20
5901;DHT22;2976;49.764;9.796;2023-04-03T17:40:51;4.60;56.10
5901;DHT22;2976;49.764;9.796;2023-04-03T17:43:20;4.50;99.90
5901;DHT22;2976;49.764;9.796;2023-04-03T17:45:45;4.40;99.90
5901;DHT22;2976;49.764;9.796;2023-04-03T17:48:11;4.30;99.90
5901;DHT22;2976;49.764;9.796;2023-04-03T17:50:37;4.20;99.90
5901;DHT22;2976;49.764;9.796;2023-04-03T17:53:02;4.10;99.90
5901;DHT22;2976;49.764;9.796;2023-04-03T17:55:28;4.00;1.00
5901;DHT22;2976;49.764;9.796;2023-04-03T17:57:53;3.90;1.00
5901;DHT22;2976;49.764;9.796;2023-04-03T18:00:19;3.90;1.00
5901;DHT22;2976;49.764;9.796;2023-04-03T18:02:44;3.90;1.00
5901;DHT22;2976;49.764;9.796;2023-04-03T18:05:10;3.80;54.50
5901;DHT22;2976;49.764;9.796;2023-04-03T18:07:37;3.70;66.40
5901;DHT22;2976;49.764;9.796;2023-04-03T18:10:04;3.70;27.30
5901;DHT22;2976;49.764;9.796;2023-04-03T18:12:34;3.70;99.90
5901;DHT22;2976;49.764;9.796;2023-04-03T18:15:00;3.60;95.90
5901;DHT22;2976;49.764;9.796;2023-04-03T18:17:27;3.60;7.00
5901;DHT22;2976;49.764;9.796;2023-04-03T18:19:52;3.50;12.00
5901;DHT22;2976;49.764;9.796;2023-04-03T18:22:20;3.50;99.90
5901;DHT22;2976;49.764;9.796;2023-04-03T18:24:47;3.50;1.00
5901;DHT22;2976;49.764;9.796;2023-04-03T18:27:15;3.40;1.00